createdAt,value
2023-03-02T00:01:10.645Z,110.50
2023-03-02T00:03:37.996Z,111.40
2023-03-02T00:06:04.883Z,132.70
2023-03-02T00:08:32.040Z,120.30
2023-03-02T00:13:25.369Z,110.70
2023-03-02T00:15:52.044Z,119.80
2023-03-02T00:18:18.719Z,107.90
2023-03-02T00:20:45.371Z,121.50
2023-03-02T00:23:11.986Z,111.60
2023-03-02T00:25:38.652Z,120.40
2023-03-02T00:28:05.279Z,119.30
2023-03-02T00:30:31.900Z,112.00
2023-03-02T00:32:58.541Z,139.10
2023-03-02T00:37:55.254Z,106.70
2023-03-02T00:40:21.941Z,105.40
2023-03-02T00:42:48.605Z,112.60
2023-03-02T00:45:15.254Z,100.60
2023-03-02T00:47:42.525Z,112.70
2023-03-02T00:50:10.183Z,112.40
2023-03-02T00:52:37.138Z,136.70
2023-03-02T00:57:30.479Z,124.00
2023-03-02T00:59:57.359Z,122.40
2023-03-02T01:02:32.583Z,165.40
2023-03-02T01:07:28.519Z,180.40
2023-03-02T01:09:55.399Z,150.50
2023-03-02T01:12:22.346Z,130.40
2023-03-02T01:14:50.899Z,165.50
2023-03-02T01:17:18.545Z,149.40
2023-03-02T01:19:45.292Z,162.50
2023-03-02T01:22:11.961Z,138.00
2023-03-02T01:24:38.555Z,147.60
2023-03-02T01:27:05.226Z,167.90
2023-03-02T01:29:32.009Z,140.70
2023-03-02T01:31:59.805Z,155.90
2023-03-02T01:34:26.639Z,145.40
2023-03-02T01:36:53.233Z,172.80
2023-03-02T01:39:22.547Z,133.30
2023-03-02T01:41:50.306Z,143.70
2023-03-02T01:44:39.695Z,136.30
2023-03-02T01:47:14.021Z,162.30
2023-03-02T01:49:49.179Z,123.20
2023-03-02T01:52:16.242Z,119.80
2023-03-02T01:54:43.162Z,156.10
2023-03-02T01:57:10.258Z,133.10
2023-03-02T01:59:37.433Z,128.10
2023-03-02T02:04:32.347Z,131.70
2023-03-02T02:07:04.578Z,135.20
2023-03-02T02:09:33.997Z,127.60
2023-03-02T02:12:00.723Z,138.90
2023-03-02T02:14:27.451Z,145.20
2023-03-02T02:16:54.146Z,126.70
2023-03-02T02:19:55.221Z,124.20
2023-03-02T02:22:38.984Z,126.20
2023-03-02T02:25:09.567Z,122.00
2023-03-02T02:27:36.242Z,151.40
2023-03-02T02:30:04.002Z,126.50
2023-03-02T02:32:32.824Z,145.80
2023-03-02T02:35:03.241Z,120.10
2023-03-02T02:37:39.321Z,113.00
2023-03-02T02:40:07.657Z,112.30
2023-03-02T02:42:37.175Z,119.80
2023-03-02T02:45:18.635Z,124.50
2023-03-02T02:47:45.263Z,109.20
2023-03-02T02:50:24.791Z,113.20
2023-03-02T02:52:56.182Z,111.40
2023-03-02T02:55:23.481Z,121.00
2023-03-02T02:57:52.272Z,121.30
2023-03-02T03:00:19.790Z,111.20
2023-03-02T03:02:50.020Z,127.10
2023-03-02T03:05:16.829Z,120.90
2023-03-02T03:07:44.218Z,140.00
2023-03-02T03:10:15.158Z,149.40
2023-03-02T03:12:41.826Z,158.70
2023-03-02T03:15:08.971Z,134.80
2023-03-02T03:17:35.551Z,161.40
2023-03-02T03:20:09.348Z,111.20
2023-03-02T03:22:38.268Z,132.70
2023-03-02T03:25:05.999Z,132.20
2023-03-02T03:30:02.013Z,125.20
2023-03-02T03:32:29.726Z,122.30
2023-03-02T03:34:56.654Z,130.80
2023-03-02T03:37:29.134Z,132.80
2023-03-02T03:39:55.783Z,224.20
2023-03-02T03:42:24.229Z,167.20
2023-03-02T03:44:51.334Z,162.30
2023-03-02T03:47:19.143Z,191.80
2023-03-02T03:49:46.450Z,173.40
2023-03-02T03:54:40.198Z,185.20
2023-03-02T03:57:06.940Z,185.70
2023-03-02T03:59:34.758Z,179.10
2023-03-02T04:02:03.375Z,196.90
2023-03-02T04:04:41.446Z,217.80
2023-03-02T04:07:12.887Z,198.80
2023-03-02T04:09:39.885Z,188.00
2023-03-02T04:12:08.496Z,212.20
2023-03-02T04:14:35.717Z,170.90
2023-03-02T04:17:05.497Z,150.70
2023-03-02T04:19:35.640Z,162.30
2023-03-02T04:22:04.231Z,172.70
2023-03-02T04:24:31.561Z,171.10
2023-03-02T04:27:00.980Z,173.00
2023-03-02T04:29:28.178Z,187.60
2023-03-02T04:31:55.579Z,159.90
2023-03-02T04:34:25.574Z,159.60
2023-03-02T04:36:52.579Z,155.60
2023-03-02T04:39:19.928Z,154.60
2023-03-02T04:41:49.949Z,155.60
2023-03-02T04:44:16.711Z,152.60
2023-03-02T04:46:44.831Z,154.50
2023-03-02T04:49:12.263Z,169.80
2023-03-02T04:54:08.986Z,179.40
2023-03-02T04:56:35.791Z,134.40
2023-03-02T04:59:02.607Z,133.90
2023-03-02T05:01:29.195Z,149.40
2023-03-02T05:03:56.101Z,147.20
2023-03-02T05:06:25.269Z,137.00
2023-03-02T05:08:52.904Z,142.50
2023-03-02T05:11:22.550Z,151.80
2023-03-02T05:13:53.669Z,143.30
2023-03-02T05:16:20.575Z,149.30
2023-03-02T05:21:14.741Z,134.90
2023-03-02T05:23:42.219Z,143.40
2023-03-02T05:26:08.937Z,155.30
2023-03-02T05:28:35.616Z,190.50
2023-03-02T05:31:02.503Z,195.10
2023-03-02T05:33:29.649Z,139.40
2023-03-02T05:38:23.295Z,137.70
2023-03-02T05:40:50.008Z,148.00
2023-03-02T05:43:19.154Z,151.30
2023-03-02T05:45:45.811Z,162.50
2023-03-02T05:48:13.195Z,162.50
2023-03-02T05:50:40.042Z,159.90
2023-03-02T05:53:06.816Z,161.70
2023-03-02T05:55:37.356Z,178.70
2023-03-02T05:58:06.155Z,166.60
2023-03-02T06:00:32.862Z,157.30
2023-03-02T06:02:59.502Z,165.20
2023-03-02T06:05:26.522Z,149.10
2023-03-02T06:07:54.521Z,159.00
2023-03-02T06:10:21.208Z,154.70
2023-03-02T06:12:47.841Z,166.00
2023-03-02T06:15:14.485Z,164.60
2023-03-02T06:17:41.198Z,156.60
2023-03-02T06:20:11.437Z,163.30
2023-03-02T06:22:43.104Z,153.50
2023-03-02T06:25:10.395Z,143.80
2023-03-02T06:27:38.025Z,181.40
2023-03-02T06:30:06.226Z,147.00
2023-03-02T06:32:34.445Z,185.40
2023-03-02T06:35:02.013Z,151.10
2023-03-02T06:37:29.951Z,186.30
2023-03-02T06:39:57.675Z,179.90
2023-03-02T06:42:25.196Z,147.70
2023-03-02T06:44:52.635Z,148.00
2023-03-02T06:47:19.280Z,182.10
2023-03-02T06:49:45.988Z,150.80
2023-03-02T06:52:13.695Z,172.40
2023-03-02T06:54:40.970Z,148.20
2023-03-02T06:57:07.783Z,150.00
2023-03-02T06:59:34.824Z,167.10
2023-03-02T07:02:01.911Z,154.30
2023-03-02T07:06:55.326Z,167.40
2023-03-02T07:09:22.412Z,178.90
2023-03-02T07:11:49.112Z,154.30
2023-03-02T07:14:15.996Z,151.50
2023-03-02T07:16:42.952Z,149.50
2023-03-02T07:19:13.632Z,166.70
2023-03-02T07:21:40.394Z,165.60
2023-03-02T07:24:07.204Z,190.80
2023-03-02T07:26:33.970Z,164.30
2023-03-02T07:29:01.052Z,207.90
2023-03-02T07:31:27.930Z,211.70
2023-03-02T07:33:54.630Z,223.30
2023-03-02T07:36:21.297Z,191.30
2023-03-02T07:38:48.775Z,184.70
2023-03-02T07:41:17.078Z,201.60
2023-03-02T07:43:43.869Z,201.20
2023-03-02T07:46:10.591Z,230.30
2023-03-02T07:48:37.375Z,214.50
2023-03-02T07:51:05.108Z,226.80
2023-03-02T07:53:32.933Z,246.80
2023-03-02T07:56:01.479Z,220.60
2023-03-02T07:58:31.089Z,233.90
2023-03-02T08:00:58.021Z,234.60
2023-03-02T08:03:24.705Z,219.80
2023-03-02T08:05:51.703Z,251.10
2023-03-02T08:08:18.291Z,207.50
2023-03-02T08:10:44.902Z,212.80
2023-03-02T08:13:12.190Z,225.10
2023-03-02T08:15:38.762Z,222.00
2023-03-02T08:18:05.406Z,215.70
2023-03-02T08:20:32.067Z,234.20
2023-03-02T08:22:58.715Z,224.60
2023-03-02T08:25:25.455Z,210.50
2023-03-02T08:27:52.053Z,213.60
2023-03-02T08:30:19.031Z,212.00
2023-03-02T08:32:45.854Z,206.40
2023-03-02T08:35:12.968Z,172.40
2023-03-02T08:37:39.551Z,201.70
2023-03-02T08:40:07.454Z,198.90
2023-03-02T08:42:34.068Z,189.10
2023-03-02T08:45:00.662Z,183.70
2023-03-02T08:47:28.375Z,184.20
2023-03-02T08:49:54.973Z,177.90
2023-03-02T08:52:21.715Z,177.10
2023-03-02T08:54:48.358Z,164.80
2023-03-02T08:57:15.001Z,159.40
2023-03-02T08:59:41.656Z,165.60
2023-03-02T09:02:11.154Z,161.30
2023-03-02T09:04:38.314Z,158.70
2023-03-02T09:07:05.062Z,163.10
2023-03-02T09:09:31.662Z,167.30
2023-03-02T09:11:58.293Z,162.50
2023-03-02T09:14:25.116Z,160.90
2023-03-02T09:16:52.895Z,166.50
2023-03-02T09:19:20.228Z,155.50
2023-03-02T09:24:13.467Z,159.80
2023-03-02T09:26:40.210Z,158.50
2023-03-02T09:29:07.362Z,166.40
2023-03-02T09:34:01.599Z,158.20
2023-03-02T09:36:28.291Z,167.00
2023-03-02T09:38:55.390Z,171.60
2023-03-02T09:41:22.069Z,167.60
2023-03-02T09:43:59.923Z,159.40
2023-03-02T09:46:30.529Z,170.10
2023-03-02T09:49:15.488Z,149.50
2023-03-02T09:51:42.104Z,155.30
2023-03-02T09:54:13.695Z,154.20
2023-03-02T09:56:50.731Z,150.60
2023-03-02T09:59:31.830Z,145.00
2023-03-02T10:02:15.392Z,139.20
2023-03-02T10:04:47.377Z,138.90
2023-03-02T10:07:17.925Z,135.90
2023-03-02T10:09:44.573Z,137.40
2023-03-02T10:12:39.040Z,135.90
2023-03-02T10:15:29.292Z,137.60
2023-03-02T10:18:16.403Z,137.10
2023-03-02T10:20:47.586Z,131.50
2023-03-02T10:23:33.342Z,136.40
2023-03-02T10:26:13.289Z,128.50
2023-03-02T10:28:49.484Z,135.40
2023-03-02T10:31:28.614Z,125.70
2023-03-02T10:33:55.639Z,122.10
2023-03-02T10:36:29.444Z,131.10
2023-03-02T10:38:56.947Z,132.20
2023-03-02T10:41:31.696Z,128.80
2023-03-02T10:44:04.723Z,136.30
2023-03-02T10:46:45.153Z,131.60
2023-03-02T10:49:34.451Z,135.50
2023-03-02T10:52:22.485Z,137.40
2023-03-02T10:54:49.308Z,133.30
2023-03-02T10:57:24.815Z,135.40
2023-03-02T10:59:51.722Z,132.30
2023-03-02T11:02:27.567Z,146.40
2023-03-02T11:05:18.342Z,128.20
2023-03-02T11:08:16.471Z,137.60
2023-03-02T11:11:01.402Z,142.40
2023-03-02T11:13:33.537Z,136.90
2023-03-02T11:16:24.449Z,141.60
2023-03-02T11:18:52.967Z,142.20
2023-03-02T11:21:30.194Z,139.50
2023-03-02T11:24:10.309Z,134.60
2023-03-02T11:26:55.385Z,143.30
2023-03-02T11:29:35.724Z,147.80
2023-03-02T11:32:08.564Z,147.30
2023-03-02T11:34:48.647Z,142.10
2023-03-02T11:37:27.461Z,137.20
2023-03-02T11:40:00.112Z,140.80
2023-03-02T11:42:32.199Z,137.00
2023-03-02T11:45:06.296Z,130.00
2023-03-02T11:47:32.993Z,139.70
2023-03-02T11:50:03.817Z,126.20
2023-03-02T11:52:32.329Z,131.70
2023-03-02T11:55:22.497Z,125.10
2023-03-02T11:57:54.583Z,119.50
2023-03-02T12:00:24.225Z,121.00
2023-03-02T12:03:04.553Z,109.70
2023-03-02T12:05:36.222Z,101.30
2023-03-02T12:08:05.254Z,107.10
2023-03-02T12:10:39.015Z,115.70
2023-03-02T12:13:20.337Z,114.00
2023-03-02T12:15:50.963Z,105.20
2023-03-02T12:18:20.675Z,113.90
2023-03-02T12:21:09.606Z,111.40
2023-03-02T12:23:51.794Z,118.70
2023-03-02T12:26:21.144Z,118.90
2023-03-02T12:29:06.075Z,120.00
2023-03-02T12:31:59.697Z,115.60
2023-03-02T12:34:43.396Z,121.70
2023-03-02T12:37:14.387Z,122.40
2023-03-02T12:39:50.255Z,114.80
2023-03-02T12:42:29.570Z,116.00
2023-03-02T12:45:19.101Z,118.10
2023-03-02T12:47:47.584Z,112.80
2023-03-02T12:50:20.432Z,111.80
2023-03-02T12:52:57.347Z,114.20
2023-03-02T12:55:24.946Z,109.90
2023-03-02T12:57:56.229Z,104.00
2023-03-02T13:00:25.064Z,103.90
2023-03-02T13:02:53.049Z,106.10
2023-03-02T13:05:24.665Z,104.30
2023-03-02T13:07:58.632Z,108.50
2023-03-02T13:10:31.336Z,114.20
2023-03-02T13:12:59.370Z,101.30
2023-03-02T13:15:27.718Z,92.10
2023-03-02T13:17:58.246Z,104.00
2023-03-02T13:20:26.908Z,112.30
2023-03-02T13:22:53.623Z,113.10
2023-03-02T13:25:24.944Z,100.80
2023-03-02T13:27:55.851Z,112.70
2023-03-02T13:30:25.292Z,78.50
2023-03-02T13:32:52.000Z,125.40
2023-03-02T13:35:26.429Z,132.20
2023-03-02T13:38:11.426Z,105.60
2023-03-02T13:40:40.665Z,122.30
2023-03-02T13:43:36.359Z,123.90
2023-03-02T13:46:04.410Z,124.50
2023-03-02T13:48:31.548Z,129.00
2023-03-02T13:51:17.465Z,127.90
2023-03-02T13:53:50.502Z,134.20
2023-03-02T13:56:17.109Z,140.30
2023-03-02T13:58:43.761Z,137.80
2023-03-02T14:01:11.697Z,144.90
2023-03-02T14:03:38.367Z,151.50
2023-03-02T14:06:06.244Z,146.20
2023-03-02T14:08:32.900Z,147.40
2023-03-02T14:11:01.101Z,150.80
2023-03-02T14:13:40.835Z,146.90
2023-03-02T14:16:07.885Z,150.40
2023-03-02T14:18:39.601Z,149.60
2023-03-02T14:21:10.807Z,147.50
2023-03-02T14:23:39.188Z,145.40
2023-03-02T14:26:06.106Z,92.90
2023-03-02T14:28:33.269Z,141.70
2023-03-02T14:33:26.548Z,158.50
2023-03-02T14:35:55.127Z,146.90
2023-03-02T14:38:22.547Z,146.80
2023-03-02T14:40:49.190Z,147.40
2023-03-02T14:43:17.711Z,147.80
2023-03-02T14:45:45.236Z,143.30
2023-03-02T14:48:11.845Z,142.40
2023-03-02T14:50:41.039Z,137.90
2023-03-02T14:53:11.007Z,124.30
2023-03-02T14:55:37.603Z,129.30
2023-03-02T14:58:07.181Z,138.30
2023-03-02T15:00:33.821Z,136.60
2023-03-02T15:03:00.529Z,132.10
2023-03-02T15:05:27.359Z,115.60
2023-03-02T15:07:58.785Z,134.00
2023-03-02T15:10:25.588Z,134.90
2023-03-02T15:12:52.266Z,133.40
2023-03-02T15:15:19.185Z,107.50
2023-03-02T15:17:45.848Z,106.60
2023-03-02T15:20:14.133Z,130.10
2023-03-02T15:22:40.759Z,138.70
2023-03-02T15:25:07.775Z,110.90
2023-03-02T15:27:34.433Z,127.00
2023-03-02T15:30:01.303Z,127.70
2023-03-02T15:32:28.157Z,135.20
2023-03-02T15:34:54.835Z,121.20
2023-03-02T15:37:21.523Z,136.00
2023-03-02T15:39:53.940Z,128.20
2023-03-02T15:42:20.649Z,126.10
2023-03-02T15:44:47.549Z,126.80
2023-03-02T15:47:14.275Z,100.10
2023-03-02T15:49:40.985Z,106.70
2023-03-02T15:52:07.590Z,124.50
2023-03-02T15:54:34.169Z,106.00
2023-03-02T15:57:01.379Z,123.90
2023-03-02T15:59:28.630Z,125.80
2023-03-02T16:01:59.546Z,127.00
2023-03-02T16:04:26.867Z,119.00
2023-03-02T16:09:22.603Z,115.20
2023-03-02T16:11:50.010Z,91.30
2023-03-02T16:14:16.780Z,111.10
2023-03-02T16:16:44.392Z,113.60
2023-03-02T16:19:12.664Z,108.90
2023-03-02T16:21:39.461Z,114.80
2023-03-02T16:24:06.886Z,111.50
2023-03-02T16:26:35.062Z,90.80
2023-03-02T16:29:03.512Z,115.50
2023-03-02T16:31:33.123Z,106.40
2023-03-02T16:34:03.790Z,90.10
2023-03-02T16:36:30.418Z,108.50
2023-03-02T16:38:57.079Z,116.20
2023-03-02T16:41:23.941Z,82.40
2023-03-02T16:43:52.727Z,109.90
2023-03-02T16:46:19.741Z,107.70
2023-03-02T16:48:46.467Z,91.30
2023-03-02T16:51:13.539Z,85.80
2023-03-02T16:56:09.888Z,96.80
2023-03-02T16:58:38.455Z,83.40
2023-03-02T17:01:09.771Z,78.20
2023-03-02T17:03:36.467Z,101.80
2023-03-02T17:06:04.795Z,106.00
2023-03-02T17:08:31.421Z,103.00
2023-03-02T17:10:58.019Z,100.50
2023-03-02T17:13:24.652Z,95.00
2023-03-02T17:15:51.396Z,88.60
2023-03-02T17:18:18.039Z,104.70
2023-03-02T17:20:44.685Z,101.40
2023-03-02T17:23:12.802Z,105.50
2023-03-02T17:25:39.603Z,100.80
2023-03-02T17:28:06.720Z,103.20
2023-03-02T17:33:00.032Z,106.00
2023-03-02T17:35:26.640Z,103.30
2023-03-02T17:37:53.403Z,107.20
2023-03-02T17:40:20.091Z,109.20
2023-03-02T17:42:46.701Z,82.20
2023-03-02T17:45:20.533Z,91.30
2023-03-02T17:47:49.904Z,84.20
2023-03-02T17:50:16.681Z,79.60
2023-03-02T17:52:43.743Z,83.10
2023-03-02T17:55:11.183Z,86.70
2023-03-02T17:57:37.953Z,85.70
2023-03-02T18:00:07.571Z,96.00
2023-03-02T18:02:34.469Z,96.80
2023-03-02T18:05:01.153Z,95.80
2023-03-02T18:07:27.861Z,79.60
2023-03-02T18:09:54.464Z,103.60
2023-03-02T18:12:21.074Z,104.50
2023-03-02T18:14:47.735Z,101.40
2023-03-02T18:17:15.160Z,74.60
2023-03-02T18:19:41.801Z,98.30
2023-03-02T18:22:08.448Z,81.40
2023-03-02T18:24:35.116Z,99.40
2023-03-02T18:27:02.288Z,79.80
2023-03-02T18:31:55.567Z,84.10
2023-03-02T18:34:22.806Z,99.30
2023-03-02T18:36:49.600Z,82.90
2023-03-02T18:39:16.418Z,73.60
2023-03-02T18:41:43.084Z,95.20
2023-03-02T18:44:10.249Z,97.20
2023-03-02T18:49:06.715Z,82.90
2023-03-02T18:51:33.356Z,82.50
2023-03-02T18:54:00.766Z,88.20
2023-03-02T18:56:31.092Z,78.40
2023-03-02T18:58:57.908Z,80.90
2023-03-02T19:01:30.920Z,87.50
2023-03-02T19:03:59.257Z,96.70
2023-03-02T19:06:25.899Z,84.40
2023-03-02T19:08:52.525Z,99.80
2023-03-02T19:11:19.214Z,101.30
2023-03-02T19:13:45.937Z,99.40
2023-03-02T19:16:13.137Z,104.50
2023-03-02T19:21:06.504Z,80.10
2023-03-02T19:23:33.825Z,78.90
2023-03-02T19:26:00.767Z,81.30
2023-03-02T19:28:27.760Z,75.50
2023-03-02T19:30:54.368Z,97.10
2023-03-02T19:33:21.406Z,97.70
2023-03-02T19:38:14.745Z,73.00
2023-03-02T19:40:41.389Z,74.70
2023-03-02T19:43:08.068Z,97.80
2023-03-02T19:45:35.839Z,99.00
2023-03-02T19:48:03.564Z,80.60
2023-03-02T19:50:30.507Z,95.90
2023-03-02T19:52:57.346Z,91.00
2023-03-02T19:55:24.396Z,88.80
2023-03-02T19:57:56.569Z,95.30
2023-03-02T20:00:23.794Z,70.00
2023-03-02T20:05:17.322Z,66.80
2023-03-02T20:07:44.024Z,103.70
2023-03-02T20:10:21.355Z,81.30
2023-03-02T20:12:48.211Z,82.40
2023-03-02T20:15:14.876Z,95.10
2023-03-02T20:17:41.534Z,113.20
2023-03-02T20:20:09.118Z,84.70
2023-03-02T20:22:36.899Z,85.00
2023-03-02T20:25:04.538Z,93.80
2023-03-02T20:27:31.183Z,105.00
2023-03-02T20:29:57.811Z,83.70
2023-03-02T20:32:25.466Z,82.30
2023-03-02T20:34:52.272Z,90.50
2023-03-02T20:37:18.932Z,88.20
2023-03-02T20:39:48.019Z,122.60
2023-03-02T20:42:14.652Z,131.70
2023-03-02T20:44:41.564Z,130.30
2023-03-02T20:47:09.302Z,104.50
2023-03-02T20:49:36.441Z,137.00
2023-03-02T20:54:32.299Z,125.60
2023-03-02T20:56:59.111Z,154.40
2023-03-02T20:59:25.886Z,177.10
2023-03-02T21:01:53.310Z,128.60
2023-03-02T21:04:20.281Z,113.10
2023-03-02T21:06:47.137Z,127.40
2023-03-02T21:09:13.819Z,142.20
2023-03-02T21:11:40.504Z,147.10
2023-03-02T21:14:07.365Z,121.20
2023-03-02T21:16:38.177Z,145.00
2023-03-02T21:19:06.126Z,109.30
2023-03-02T21:21:41.499Z,121.60
2023-03-02T21:24:13.649Z,147.20
2023-03-02T21:26:41.705Z,108.40
2023-03-02T21:29:09.516Z,112.10
2023-03-02T21:31:36.303Z,106.70
2023-03-02T21:34:03.200Z,127.20
2023-03-02T21:36:30.332Z,125.50
2023-03-02T21:41:23.711Z,116.50
2023-03-02T21:43:50.776Z,143.10
2023-03-02T21:48:46.270Z,138.70
2023-03-02T21:51:13.224Z,109.30
2023-03-02T21:53:40.165Z,129.50
2023-03-02T21:56:07.268Z,117.80
2023-03-02T22:01:00.748Z,92.90
2023-03-02T22:03:27.379Z,117.50
2023-03-02T22:05:54.073Z,120.70
2023-03-02T22:08:20.867Z,95.00
2023-03-02T22:10:48.865Z,116.70
2023-03-02T22:13:30.582Z,81.80
2023-03-02T22:16:21.670Z,89.70
2023-03-02T22:18:49.703Z,83.40
2023-03-02T22:21:31.184Z,86.60
2023-03-02T22:24:12.684Z,85.70
2023-03-02T22:31:31.080Z,91.90
2023-03-02T22:43:22.974Z,68.90
2023-03-02T22:45:49.750Z,93.80
2023-03-02T22:48:18.725Z,99.10
2023-03-02T22:50:46.443Z,98.80
2023-03-02T22:53:24.073Z,93.90
2023-03-02T22:55:54.873Z,73.10
2023-03-02T22:58:36.921Z,77.50
2023-03-02T23:01:11.775Z,88.20
2023-03-02T23:03:40.786Z,69.10
2023-03-02T23:06:45.252Z,93.40
2023-03-02T23:09:17.912Z,70.10
2023-03-02T23:11:44.854Z,86.00
2023-03-02T23:14:34.980Z,83.60
2023-03-02T23:17:05.835Z,67.70
2023-03-02T23:19:32.478Z,73.00
2023-03-02T23:21:59.337Z,70.30
2023-03-02T23:24:25.961Z,65.90
2023-03-02T23:26:52.754Z,56.40
2023-03-02T23:29:19.664Z,74.80
2023-03-02T23:31:46.551Z,77.00
2023-03-02T23:34:13.427Z,74.70
2023-03-02T23:36:40.179Z,54.40
2023-03-02T23:39:07.591Z,76.60
2023-03-02T23:41:39.283Z,53.90
2023-03-02T23:44:06.366Z,73.70
2023-03-02T23:46:35.799Z,75.00
2023-03-02T23:49:02.668Z,70.40
2023-03-02T23:51:29.686Z,73.50
2023-03-02T23:56:34.269Z,54.00
2023-03-02T23:59:02.275Z,45.50
